Time;durP1;ratioP1;P1;durP2;ratioP2;P2;SDS_P1;SDS_P2;PMS_P1;PMS_P2;Temp;Humidity;BMP_temperature;BMP_pressure;BME280_temperature;BME280_humidity;BME280_pressure;Samples;Min_cycle;Max_cycle;Signal;HPM_P1;HPM_P2
2022/10/20 00:01:25;;;;;;;3.78;3.40;;;18.50;99.90;;;;;;5014628;28;20195;-72
2022/10/20 00:03:52;;;;;;;3.95;3.65;;;18.60;99.90;;;;;;5014848;28;20199;-71
2022/10/20 00:06:25;;;;;;;3.80;3.50;;;18.50;99.90;;;;;;5014183;28;20187;-71
2022/10/20 00:08:53;;;;;;;3.70;3.40;;;18.50;99.90;;;;;;5031038;28;20195;-71
2022/10/20 00:11:21;;;;;;;3.05;2.85;;;18.50;99.90;;;;;;5014243;28;20708;-71
2022/10/20 00:13:49;;;;;;;3.83;3.45;;;18.50;99.90;;;;;;5031183;28;20193;-71
2022/10/20 00:16:16;;;;;;;5.30;3.35;;;18.50;99.90;;;;;;5014443;28;20188;-71
2022/10/20 00:18:42;;;;;;;3.33;3.03;;;18.50;99.90;;;;;;5014078;28;20310;-72
2022/10/20 00:21:13;;;;;;;4.03;3.63;;;18.60;99.90;;;;;;5014173;28;20290;-72
2022/10/20 00:23:38;;;;;;;3.30;3.00;;;18.50;99.90;;;;;;4998085;28;20282;-72
2022/10/20 00:26:17;;;;;;;4.20;3.85;;;18.60;99.90;;;;;;4998065;28;20278;-71
2022/10/20 00:28:43;;;;;;;3.25;3.05;;;18.50;99.90;;;;;;5014104;28;20736;-71
2022/10/20 00:31:10;;;;;;;3.20;3.00;;;18.60;99.90;;;;;;5014126;28;20253;-72
2022/10/20 00:33:36;;;;;;;4.50;3.50;;;18.50;99.90;;;;;;5013996;28;20640;-71
2022/10/20 00:36:06;;;;;;;3.78;3.47;;;18.50;99.90;;;;;;5000753;28;20191;-71
2022/10/20 00:38:33;;;;;;;3.75;3.45;;;18.60;99.90;;;;;;5001096;28;20211;-72
2022/10/20 00:41:01;;;;;;;3.78;3.45;;;18.60;99.90;;;;;;5017734;28;20229;-71
2022/10/20 00:44:41;;;;;;;3.58;3.28;;;18.50;99.90;;;;;;5017668;28;20195;-72
2022/10/20 00:47:17;;;;;;;3.50;3.20;;;18.50;99.90;;;;;;4907546;28;20222;-71
2022/10/20 00:49:43;;;;;;;3.67;3.38;;;18.50;99.90;;;;;;5017509;28;20310;-71
2022/10/20 00:52:10;;;;;;;3.53;3.22;;;18.60;99.90;;;;;;5017624;28;20191;-71
2022/10/20 00:54:36;;;;;;;3.42;3.13;;;18.60;99.90;;;;;;5017476;28;20233;-72
2022/10/20 00:57:03;;;;;;;3.35;3.10;;;18.50;99.90;;;;;;5017130;28;20294;-71
2022/10/20 00:59:35;;;;;;;3.78;3.47;;;18.50;99.90;;;;;;5017544;28;20592;-71
2022/10/20 01:02:03;;;;;;;3.70;3.40;;;18.50;99.90;;;;;;5017202;28;20183;-72
2022/10/20 01:04:30;;;;;;;3.78;3.47;;;18.50;99.90;;;;;;5017120;28;20187;-72
2022/10/20 01:06:57;;;;;;;3.80;3.50;;;18.50;99.90;;;;;;5033383;28;20243;-71
2022/10/20 01:09:23;;;;;;;3.88;3.58;;;18.50;99.90;;;;;;5017210;28;20290;-72
2022/10/20 01:12:28;;;;;;;4.10;3.60;;;18.50;99.90;;;;;;5017404;28;20191;-72
2022/10/20 01:15:14;;;;;;;3.97;3.65;;;18.50;99.90;;;;;;5017168;28;20183;-71
2022/10/20 01:17:54;;;;;;;4.03;3.72;;;18.60;99.90;;;;;;5033267;28;20203;-71
2022/10/20 01:20:59;;;;;;;3.80;3.50;;;18.50;99.90;;;;;;5017319;28;20206;-71
2022/10/20 01:23:56;;;;;;;4.20;3.90;;;18.50;99.90;;;;;;5034569;28;20183;-72
2022/10/20 01:27:11;;;;;;;3.67;3.33;;;18.60;99.90;;;;;;5013537;28;20180;-71
2022/10/20 01:29:53;;;;;;;3.80;3.50;;;18.50;99.90;;;;;;4981028;28;20250;-71
2022/10/20 01:32:32;;;;;;;4.68;4.28;;;18.50;99.90;;;;;;4981011;28;20223;-72
2022/10/20 01:35:20;;;;;;;4.35;3.95;;;18.50;99.90;;;;;;4997322;28;20227;-71
2022/10/20 01:37:57;;;;;;;4.20;3.80;;;18.50;99.90;;;;;;4997024;28;20195;-71
2022/10/20 01:41:01;;;;;;;4.30;3.90;;;18.50;99.90;;;;;;5013502;28;20271;-72
2022/10/20 01:43:34;;;;;;;3.92;3.47;;;18.50;99.90;;;;;;4996593;28;20203;-72
2022/10/20 01:46:03;;;;;;;4.28;3.88;;;18.60;99.90;;;;;;5013928;28;20547;-72
2022/10/20 01:48:34;;;;;;;4.25;3.88;;;18.50;99.90;;;;;;4996854;28;20218;-71
2022/10/20 01:51:02;;;;;;;4.10;3.70;;;18.50;99.90;;;;;;4980569;28;20216;-71
2022/10/20 01:53:28;;;;;;;4.63;4.22;;;18.50;99.90;;;;;;4980606;28;20184;-71
2022/10/20 01:55:57;;;;;;;6.15;4.10;;;18.50;99.90;;;;;;5009331;28;20197;-71
2022/10/20 01:58:49;;;;;;;4.03;3.72;;;18.50;99.90;;;;;;5033867;28;20413;-72
2022/10/20 02:01:42;;;;;;;4.30;3.63;;;18.50;99.90;;;;;;5034532;28;20223;-72
2022/10/20 02:04:09;;;;;;;4.20;3.90;;;18.50;99.90;;;;;;5018277;28;20187;-72
2022/10/20 02:07:11;;;;;;;4.00;3.70;;;18.50;99.90;;;;;;5015976;28;20237;-71
2022/10/20 02:09:49;;;;;;;4.10;3.70;;;18.50;99.90;;;;;;4992430;28;20226;-71
2022/10/20 02:12:31;;;;;;;4.88;4.45;;;18.50;99.90;;;;;;5016339;28;20241;-72
2022/10/20 02:14:58;;;;;;;4.75;4.32;;;18.50;99.90;;;;;;5016188;28;20182;-71
2022/10/20 02:17:24;;;;;;;4.40;4.00;;;18.50;99.90;;;;;;5015626;28;20848;-72
2022/10/20 02:19:52;;;;;;;4.03;3.72;;;18.50;99.90;;;;;;5033541;28;20179;-71
2022/10/20 02:22:20;;;;;;;4.38;3.97;;;18.50;99.90;;;;;;5016167;28;20218;-71
2022/10/20 02:24:47;;;;;;;4.53;4.13;;;18.50;99.90;;;;;;5016028;28;20241;-71
2022/10/20 02:27:31;;;;;;;4.22;3.83;;;18.50;99.90;;;;;;5033156;28;20203;-72
2022/10/20 02:30:10;;;;;;;4.80;4.35;;;18.50;99.90;;;;;;5032500;28;20214;-72
2022/10/20 02:32:40;;;;;;;4.00;3.60;;;18.50;99.90;;;;;;5015901;28;20237;-72
2022/10/20 02:35:13;;;;;;;4.20;3.80;;;18.50;99.90;;;;;;5015782;28;20540;-72
2022/10/20 02:37:40;;;;;;;4.47;4.07;;;18.50;99.90;;;;;;5015891;28;20226;-72
2022/10/20 02:40:06;;;;;;;4.40;4.00;;;18.50;99.90;;;;;;5015463;28;20184;-71
2022/10/20 02:42:32;;;;;;;4.15;3.85;;;18.50;99.90;;;;;;5015614;28;20297;-72
2022/10/20 02:44:58;;;;;;;4.25;3.90;;;18.50;99.90;;;;;;5015740;28;20647;-72
2022/10/20 02:47:23;;;;;;;4.75;4.30;;;18.50;99.90;;;;;;5015083;28;20215;-71
2022/10/20 02:49:49;;;;;;;4.80;4.40;;;18.50;99.90;;;;;;4998904;28;20219;-71
2022/10/20 02:52:15;;;;;;;4.30;3.90;;;18.50;99.90;;;;;;5015367;28;20188;-71
2022/10/20 02:54:41;;;;;;;4.63;4.22;;;18.50;99.90;;;;;;5015475;28;20179;-71
2022/10/20 03:00:28;;;;;;;3.72;3.42;;;18.50;99.90;;;;;;5031421;28;20309;-69
2022/10/20 03:02:54;;;;;;;4.35;3.95;;;18.50;99.90;;;;;;5014950;28;20240;-69
2022/10/20 03:05:19;;;;;;;4.15;3.80;;;18.50;99.90;;;;;;5031506;28;20195;-69
2022/10/20 03:07:45;;;;;;;4.60;4.20;;;18.50;99.90;;;;;;4998282;28;20210;-69
2022/10/20 03:10:11;;;;;;;4.15;3.75;;;18.50;99.90;;;;;;5015309;28;20590;-69
2022/10/20 03:12:36;;;;;;;4.05;3.65;;;18.50;99.90;;;;;;5015037;28;20191;-69
2022/10/20 03:15:03;;;;;;;4.55;4.15;;;18.50;99.90;;;;;;5015251;28;20190;-69
2022/10/20 03:17:29;;;;;;;4.25;3.85;;;18.50;99.90;;;;;;5014743;28;20218;-69
2022/10/20 03:19:54;;;;;;;5.10;4.70;;;18.50;99.90;;;;;;5015156;28;20191;-69
2022/10/20 03:22:20;;;;;;;4.40;4.00;;;18.50;99.90;;;;;;5014869;28;20191;-69
2022/10/20 03:24:46;;;;;;;4.25;3.85;;;18.50;99.90;;;;;;5015206;28;20189;-69
2022/10/20 03:27:12;;;;;;;4.50;4.10;;;18.50;99.90;;;;;;4998489;28;20187;-69
2022/10/20 03:29:37;;;;;;;4.78;4.38;;;18.50;99.90;;;;;;5014897;28;20203;-69
2022/10/20 03:32:03;;;;;;;4.72;4.32;;;18.50;99.90;;;;;;4998870;28;20179;-69
2022/10/20 03:34:29;;;;;;;4.50;4.10;;;18.50;99.90;;;;;;5032492;28;20667;-69
2022/10/20 03:36:55;;;;;;;4.53;4.10;;;18.50;99.90;;;;;;4998131;28;20655;-69
2022/10/20 03:39:20;;;;;;;4.70;4.20;;;18.50;99.90;;;;;;5014845;28;20207;-69
2022/10/20 03:41:46;;;;;;;4.45;4.05;;;18.50;99.90;;;;;;4998316;28;20183;-69
2022/10/20 03:44:12;;;;;;;4.00;3.70;;;18.50;99.90;;;;;;5014561;28;20230;-69
2022/10/20 03:46:38;;;;;;;4.50;4.07;;;18.50;99.90;;;;;;4997996;28;20179;-69
2022/10/20 03:49:04;;;;;;;3.92;3.60;;;18.50;99.90;;;;;;5014556;28;20234;-69
2022/10/20 03:51:29;;;;;;;4.03;3.72;;;18.50;99.90;;;;;;4998208;28;20211;-69
2022/10/20 03:53:55;;;;;;;4.35;3.95;;;18.50;99.90;;;;;;5014904;28;20191;-69
2022/10/20 03:56:21;;;;;;;4.30;3.90;;;18.50;99.90;;;;;;5031052;28;20194;-69
2022/10/20 03:58:47;;;;;;;4.20;3.85;;;18.50;99.90;;;;;;5014289;28;20298;-69
2022/10/20 04:01:20;;;;;;;4.18;3.78;;;18.50;99.90;;;;;;5014367;28;20282;-69
2022/10/20 04:03:46;;;;;;;3.97;3.67;;;18.50;99.90;;;;;;4998027;28;20194;-69
2022/10/20 04:06:12;;;;;;;4.05;3.65;;;18.50;99.90;;;;;;5014571;28;20179;-69
2022/10/20 04:08:38;;;;;;;3.90;3.58;;;18.50;99.90;;;;;;5031565;28;20203;-69
2022/10/20 04:11:04;;;;;;;3.83;3.45;;;18.50;99.90;;;;;;5018273;28;20265;-69
2022/10/20 04:13:30;;;;;;;4.10;3.80;;;18.50;99.90;;;;;;5035836;28;20198;-69
2022/10/20 04:15:56;;;;;;;4.47;4.07;;;18.50;99.90;;;;;;5018399;28;20561;-69
2022/10/20 04:18:22;;;;;;;4.13;3.72;;;18.50;99.90;;;;;;5001868;28;20215;-69
2022/10/20 04:20:48;;;;;;;4.50;4.10;;;18.50;99.90;;;;;;5018159;28;20195;-69
2022/10/20 04:23:14;;;;;;;4.00;3.70;;;18.50;99.90;;;;;;5018081;28;20270;-69
2022/10/20 04:25:44;;;;;;;4.80;4.40;;;18.50;99.90;;;;;;5001526;28;20210;-69
2022/10/20 04:28:12;;;;;;;3.95;3.65;;;18.50;99.90;;;;;;5035410;28;20215;-69
2022/10/20 04:30:38;;;;;;;4.20;3.80;;;18.50;99.90;;;;;;5017840;28;20309;-69
2022/10/20 04:33:04;;;;;;;4.38;3.97;;;18.50;99.90;;;;;;5034389;28;20270;-69
2022/10/20 04:35:30;;;;;;;3.55;3.25;;;18.50;99.90;;;;;;5017845;28;20326;-69
2022/10/20 04:37:55;;;;;;;4.05;3.75;;;18.40;99.90;;;;;;5017660;28;20619;-69
2022/10/20 04:40:21;;;;;;;3.85;3.55;;;18.50;99.90;;;;;;5034586;28;20186;-69
2022/10/20 04:42:47;;;;;;;3.67;3.38;;;18.50;99.90;;;;;;5001506;28;20187;-69
2022/10/20 04:45:12;;;;;;;3.72;3.42;;;18.50;99.90;;;;;;5001316;28;20179;-69
2022/10/20 04:47:38;;;;;;;4.05;3.72;;;18.50;99.90;;;;;;5017303;28;20207;-69
2022/10/20 04:50:04;;;;;;;3.72;3.42;;;18.50;99.90;;;;;;5035252;28;20245;-69
2022/10/20 04:52:30;;;;;;;3.85;3.55;;;18.50;99.90;;;;;;5017544;28;20195;-69
2022/10/20 04:54:56;;;;;;;3.67;3.38;;;18.50;99.90;;;;;;5001121;28;20191;-69
2022/10/20 04:57:22;;;;;;;3.53;3.22;;;18.50;99.90;;;;;;5000884;28;20187;-68
2022/10/20 04:59:48;;;;;;;3.53;3.22;;;18.50;99.90;;;;;;5001216;28;20561;-69
2022/10/20 05:02:13;;;;;;;3.85;3.55;;;18.40;99.90;;;;;;5017348;28;20187;-69
2022/10/20 05:04:39;;;;;;;3.53;2.97;;;18.40;99.90;;;;;;5017559;28;20191;-69
2022/10/20 05:07:05;;;;;;;3.90;3.60;;;18.50;99.90;;;;;;5017101;28;20202;-69
2022/10/20 05:09:31;;;;;;;4.22;3.83;;;18.50;99.90;;;;;;5017362;28;20211;-69
2022/10/20 05:11:58;;;;;;;3.63;3.33;;;18.50;99.90;;;;;;5033742;28;20191;-69
2022/10/20 05:14:24;;;;;;;3.83;3.53;;;18.50;99.90;;;;;;5034884;28;20175;-69
2022/10/20 05:16:50;;;;;;;3.88;3.47;;;18.40;99.90;;;;;;5033610;28;20650;-69
2022/10/20 05:19:17;;;;;;;3.85;3.55;;;18.40;99.90;;;;;;5016908;28;20207;-69
2022/10/20 05:21:43;;;;;;;3.90;3.60;;;18.40;99.90;;;;;;5016339;28;20235;-70
2022/10/20 05:24:15;;;;;;;3.95;3.60;;;18.40;99.90;;;;;;5016884;28;20191;-69
2022/10/20 05:26:41;;;;;;;3.50;3.20;;;18.50;99.90;;;;;;5016642;28;20175;-69
2022/10/20 05:29:09;;;;;;;3.38;3.08;;;18.50;99.90;;;;;;5016902;28;20210;-69
2022/10/20 05:31:41;;;;;;;3.17;2.97;;;18.50;99.90;;;;;;5016790;28;20191;-70
2022/10/20 05:34:09;;;;;;;4.00;3.70;;;18.40;99.90;;;;;;5034392;28;20222;-71
2022/10/20 05:36:35;;;;;;;3.53;3.22;;;18.50;99.90;;;;;;5034705;28;20188;-71
2022/10/20 05:39:01;;;;;;;3.28;3.00;;;18.40;99.90;;;;;;5016599;28;20237;-70
2022/10/20 05:41:30;;;;;;;3.80;3.50;;;18.40;99.90;;;;;;5016513;28;20194;-70
2022/10/20 05:43:59;;;;;;;3.55;3.25;;;18.40;99.90;;;;;;5016247;28;20188;-69
2022/10/20 05:46:29;;;;;;;3.17;2.97;;;18.40;99.90;;;;;;5016274;28;20187;-69
2022/10/20 05:48:58;;;;;;;3.47;3.17;;;18.40;99.90;;;;;;5016117;28;20215;-69
2022/10/20 05:51:28;;;;;;;4.10;3.80;;;18.40;99.90;;;;;;4999966;28;20211;-69
2022/10/20 05:53:56;;;;;;;3.40;3.10;;;18.40;99.90;;;;;;5016184;28;20191;-70
2022/10/20 05:56:23;;;;;;;3.47;3.17;;;18.40;99.90;;;;;;5033311;28;20183;-70
2022/10/20 05:58:49;;;;;;;3.70;3.40;;;18.40;99.90;;;;;;5015822;28;20207;-70
2022/10/20 06:01:25;;;;;;;3.97;3.40;;;18.40;99.90;;;;;;5016047;28;20195;-70
2022/10/20 06:03:57;;;;;;;3.40;3.10;;;18.40;99.90;;;;;;5016508;28;20194;-70
2022/10/20 06:06:29;;;;;;;3.47;3.17;;;18.40;99.90;;;;;;4999724;28;20265;-70
2022/10/20 06:08:58;;;;;;;3.60;2.97;;;18.50;99.90;;;;;;5015841;28;20207;-70
2022/10/20 06:11:24;;;;;;;3.72;3.42;;;18.40;99.90;;;;;;5007295;28;20215;-68
2022/10/20 06:13:51;;;;;;;3.30;3.03;;;18.40;99.90;;;;;;4980314;28;20230;-70
2022/10/20 06:16:23;;;;;;;3.40;3.10;;;18.40;99.90;;;;;;5013067;28;20183;-70
2022/10/20 06:18:50;;;;;;;2.88;2.67;;;18.40;99.90;;;;;;4996169;28;20282;-70
2022/10/20 06:21:22;;;;;;;3.40;3.13;;;18.40;99.90;;;;;;4996414;28;20190;-70
2022/10/20 06:23:49;;;;;;;3.72;3.22;;;18.40;99.90;;;;;;4980130;28;20191;-70
2022/10/20 06:26:19;;;;;;;3.22;3.03;;;18.40;99.90;;;;;;5012261;28;20216;-70
2022/10/20 06:28:49;;;;;;;3.20;3.00;;;18.40;99.90;;;;;;4995672;28;20258;-70
2022/10/20 06:31:18;;;;;;;3.03;2.83;;;18.50;99.90;;;;;;4995586;28;20219;-70
2022/10/20 06:33:45;;;;;;;3.17;2.85;;;18.40;99.90;;;;;;4995695;28;20188;-70
2022/10/20 06:36:12;;;;;;;3.55;3.25;;;18.40;99.90;;;;;;4995674;28;20199;-70
2022/10/20 06:38:39;;;;;;;3.42;3.13;;;18.40;99.90;;;;;;5012609;28;20196;-70
2022/10/20 06:41:09;;;;;;;2.97;2.78;;;18.40;99.90;;;;;;5011635;28;20188;-70
2022/10/20 06:43:35;;;;;;;3.40;3.10;;;18.40;99.90;;;;;;4995605;28;20199;-70
2022/10/20 06:46:04;;;;;;;3.05;2.75;;;18.40;99.90;;;;;;4979271;28;20191;-70
2022/10/20 06:48:31;;;;;;;3.03;2.80;;;18.40;99.90;;;;;;4995042;28;20869;-72
2022/10/20 06:50:59;;;;;;;3.35;2.88;;;18.40;99.90;;;;;;5012507;28;20206;-70
2022/10/20 06:53:27;;;;;;;4.30;2.97;;;18.40;99.90;;;;;;4998491;28;20187;-70
2022/10/20 06:56:05;;;;;;;2.78;2.58;;;18.50;99.90;;;;;;4998878;28;20191;-70
2022/10/20 06:58:32;;;;;;;3.63;2.88;;;18.40;99.90;;;;;;5031831;28;20301;-70
2022/10/20 07:01:04;;;;;;;3.95;3.08;;;18.40;99.90;;;;;;5035426;28;20263;-70
2022/10/20 07:03:32;;;;;;;2.92;2.63;;;18.40;99.90;;;;;;5005138;28;20210;-70
2022/10/20 07:05:58;;;;;;;3.00;2.65;;;18.40;99.90;;;;;;5024837;28;20179;-70
2022/10/20 07:08:28;;;;;;;3.00;2.80;;;18.40;99.90;;;;;;4994698;28;20204;-70
2022/10/20 07:11:07;;;;;;;3.13;2.60;;;18.40;99.90;;;;;;5012407;28;20204;-70
2022/10/20 07:13:35;;;;;;;3.55;2.78;;;18.50;99.90;;;;;;4995060;28;20172;-70
2022/10/20 07:16:03;;;;;;;3.05;2.70;;;18.40;99.90;;;;;;4978876;28;20188;-71
2022/10/20 07:18:29;;;;;;;3.15;2.63;;;18.40;99.90;;;;;;4978509;28;20216;-70
2022/10/20 07:21:01;;;;;;;2.97;2.78;;;18.40;99.90;;;;;;4995166;28;20192;-70
2022/10/20 07:23:29;;;;;;;3.20;2.90;;;18.40;99.90;;;;;;4978767;28;20203;-70
2022/10/20 07:26:27;;;;;;;3.50;2.75;;;18.50;99.90;;;;;;5011191;28;20202;-70
2022/10/20 07:28:56;;;;;;;3.08;2.80;;;18.50;99.90;;;;;;5011881;28;20249;-70
2022/10/20 07:31:29;;;;;;;2.95;2.70;;;18.40;99.90;;;;;;4978661;28;20228;-71
2022/10/20 07:33:58;;;;;;;2.72;2.42;;;18.40;99.90;;;;;;5012221;28;20184;-70
2022/10/20 07:36:28;;;;;;;2.53;2.33;;;18.40;99.90;;;;;;4994826;28;20326;-70
2022/10/20 07:38:57;;;;;;;3.90;2.70;;;18.50;99.90;;;;;;4994279;28;20211;-70
2022/10/20 07:41:25;;;;;;;2.95;2.67;;;18.50;99.90;;;;;;4994878;28;20567;-70
2022/10/20 07:43:53;;;;;;;2.85;2.65;;;18.40;99.90;;;;;;4994052;28;20284;-70
2022/10/20 07:46:19;;;;;;;3.72;2.60;;;18.40;99.90;;;;;;4978322;28;20196;-71
2022/10/20 07:48:45;;;;;;;2.78;2.42;;;18.50;99.90;;;;;;4977966;28;20303;-70
2022/10/20 07:51:20;;;;;;;2.97;2.78;;;18.40;99.90;;;;;;4994560;28;20220;-71
2022/10/20 07:53:47;;;;;;;2.80;2.60;;;18.40;99.90;;;;;;5012112;28;20183;-70
2022/10/20 07:56:14;;;;;;;5.10;2.90;;;18.40;99.90;;;;;;4978453;28;20207;-70
2022/10/20 07:58:41;;;;;;;2.40;2.20;;;18.40;99.90;;;;;;4994108;28;20211;-71
2022/10/20 08:01:08;;;;;;;2.58;2.38;;;18.40;99.90;;;;;;4994210;28;20184;-70
2022/10/20 08:03:34;;;;;;;2.50;2.30;;;18.40;99.90;;;;;;4994684;28;20215;-70
2022/10/20 08:06:01;;;;;;;3.38;2.35;;;18.40;99.90;;;;;;5010824;28;20210;-70
2022/10/20 08:08:27;;;;;;;3.00;2.30;;;18.40;99.90;;;;;;4994026;28;20218;-70
2022/10/20 08:10:53;;;;;;;2.63;2.42;;;18.40;99.90;;;;;;4994355;28;20219;-70
2022/10/20 08:13:19;;;;;;;2.47;2.28;;;18.40;99.90;;;;;;4978185;28;20207;-70
2022/10/20 08:15:45;;;;;;;2.67;2.33;;;18.50;99.90;;;;;;4994290;28;20181;-70
2022/10/20 08:18:10;;;;;;;2.40;2.20;;;18.40;99.90;;;;;;4994287;28;20212;-71
2022/10/20 08:20:36;;;;;;;2.42;2.22;;;18.50;99.90;;;;;;4994409;28;20194;-70
2022/10/20 08:23:02;;;;;;;2.70;2.50;;;18.50;99.90;;;;;;4994384;28;20180;-70
2022/10/20 08:25:28;;;;;;;5.38;2.75;;;18.40;99.90;;;;;;5010456;28;20196;-70
2022/10/20 08:27:53;;;;;;;2.50;2.30;;;18.50;99.90;;;;;;4993827;28;20200;-70
2022/10/20 08:30:19;;;;;;;2.53;2.33;;;18.50;99.90;;;;;;4994320;28;20265;-70
2022/10/20 08:32:49;;;;;;;2.53;2.33;;;18.50;99.90;;;;;;4994112;28;20219;-70
2022/10/20 08:35:15;;;;;;;2.55;2.35;;;18.50;99.90;;;;;;5010709;28;20180;-70
2022/10/20 08:37:41;;;;;;;2.40;2.20;;;18.50;99.90;;;;;;4993783;28;20211;-70
2022/10/20 08:40:11;;;;;;;2.00;1.90;;;18.50;99.90;;;;;;4994038;28;20574;-70
2022/10/20 08:42:43;;;;;;;2.15;2.05;;;18.50;99.90;;;;;;4978102;28;20325;-70
2022/10/20 08:45:20;;;;;;;2.42;2.22;;;18.50;99.90;;;;;;5010399;28;20652;-70
2022/10/20 08:47:51;;;;;;;2.65;2.45;;;18.50;99.90;;;;;;5011362;28;20208;-70
2022/10/20 08:50:20;;;;;;;2.30;2.10;;;18.50;99.90;;;;;;4993891;28;20595;-70
2022/10/20 08:52:52;;;;;;;2.22;2.10;;;18.50;99.90;;;;;;4977625;28;20184;-70
2022/10/20 08:55:30;;;;;;;2.38;2.03;;;18.50;99.90;;;;;;5012358;28;20655;-71
2022/10/20 08:58:10;;;;;;;3.83;2.20;;;18.50;99.90;;;;;;5042279;22;20306;-73
2022/10/20 09:00:37;;;;;;;2.50;2.20;;;18.50;99.90;;;;;;5052467;28;20190;-73
2022/10/20 09:03:20;;;;;;;2.30;2.10;;;18.50;99.90;;;;;;5035648;28;20545;-73
2022/10/20 09:05:56;;;;;;;2.72;2.05;;;18.50;99.90;;;;;;5016928;28;20201;-73
2022/10/20 09:08:29;;;;;;;2.20;2.00;;;18.50;99.90;;;;;;5022805;28;20284;-73
2022/10/20 09:10:55;;;;;;;2.20;2.00;;;18.50;99.90;;;;;;5036211;28;20210;-73
2022/10/20 09:13:30;;;;;;;2.15;2.00;;;18.50;99.90;;;;;;5036639;28;20236;-73
2022/10/20 09:16:37;;;;;;;2.50;2.28;;;18.50;99.90;;;;;;5036439;28;20190;-73
2022/10/20 09:19:06;;;;;;;2.30;2.10;;;18.50;99.90;;;;;;5020002;28;20612;-73
2022/10/20 09:21:34;;;;;;;2.50;2.15;;;18.50;99.90;;;;;;5019664;28;20213;-73
2022/10/20 09:24:04;;;;;;;2.17;1.98;;;18.50;99.90;;;;;;5036408;28;20186;-73
2022/10/20 09:26:34;;;;;;;2.53;2.30;;;18.50;99.90;;;;;;5036409;28;20226;-73
2022/10/20 09:29:19;;;;;;;2.53;2.22;;;18.50;99.90;;;;;;5052479;28;20218;-73
2022/10/20 09:31:53;;;;;;;2.20;2.00;;;18.50;99.90;;;;;;5053807;28;20217;-73
2022/10/20 09:34:29;;;;;;;3.10;2.33;;;18.50;99.90;;;;;;5036175;28;20189;-73
2022/10/20 09:37:09;;;;;;;2.55;2.35;;;18.60;99.90;;;;;;5036276;28;20186;-73
2022/10/20 09:40:01;;;;;;;2.72;2.53;;;18.60;99.90;;;;;;5036299;28;20201;-73
2022/10/20 09:42:35;;;;;;;2.40;2.20;;;18.50;99.90;;;;;;5034643;28;20194;-73
2022/10/20 09:45:16;;;;;;;2.00;1.90;;;18.50;99.90;;;;;;5019248;28;20569;-73
2022/10/20 09:47:46;;;;;;;2.33;2.03;;;18.60;99.90;;;;;;5033898;28;20178;-73
2022/10/20 09:50:37;;;;;;;2.72;2.33;;;18.50;99.90;;;;;;5050450;28;20268;-73
2022/10/20 09:53:16;;;;;;;2.33;2.13;;;18.50;99.90;;;;;;5038996;28;20217;-72
2022/10/20 09:55:48;;;;;;;2.10;1.90;;;18.50;99.90;;;;;;5036109;28;20178;-72
2022/10/20 09:58:28;;;;;;;2.05;1.95;;;18.50;99.90;;;;;;5035933;28;20246;-72
2022/10/20 10:01:00;;;;;;;2.50;2.30;;;18.50;99.90;;;;;;5052831;28;20186;-73
2022/10/20 10:03:27;;;;;;;2.75;2.55;;;18.50;99.90;;;;;;5036011;28;20171;-73
2022/10/20 10:05:58;;;;;;;2.58;2.38;;;18.50;99.90;;;;;;5019338;28;20327;-72
2022/10/20 10:08:42;;;;;;;2.05;1.85;;;18.60;99.90;;;;;;5032375;28;20203;-72
2022/10/20 10:11:21;;;;;;;2.50;2.30;;;18.50;99.90;;;;;;4999814;28;20215;-72
2022/10/20 10:13:50;;;;;;;2.10;2.00;;;18.50;99.90;;;;;;5016433;28;20201;-73
2022/10/20 10:16:20;;;;;;;2.85;2.50;;;18.60;99.90;;;;;;4999787;28;20245;-73
2022/10/20 10:19:03;;;;;;;3.22;2.92;;;18.60;99.90;;;;;;5015820;28;20207;-73
2022/10/20 10:21:47;;;;;;;3.63;3.25;;;18.60;99.90;;;;;;5015966;28;20187;-72
2022/10/20 10:24:41;;;;;;;5.93;4.72;;;18.60;99.90;;;;;;4999852;28;20183;-73
2022/10/20 10:27:33;;;;;;;6.40;4.57;;;18.60;99.90;;;;;;5016047;28;20217;-72
2022/10/20 10:30:26;;;;;;;7.13;5.35;;;18.60;99.90;;;;;;5018402;28;20252;-73
2022/10/20 10:32:52;;;;;;;7.70;5.53;;;18.60;99.90;;;;;;5053023;28;20194;-73
2022/10/20 10:35:38;;;;;;;8.02;6.38;;;18.60;99.90;;;;;;5019184;28;20281;-73
2022/10/20 10:38:08;;;;;;;8.93;7.10;;;18.60;99.90;;;;;;5029430;28;20693;-72
2022/10/20 10:40:55;;;;;;;10.05;7.45;;;18.60;99.90;;;;;;5033708;28;20206;-73
2022/10/20 10:43:53;;;;;;;14.52;9.70;;;18.60;99.90;;;;;;5035112;28;20225;-72
2022/10/20 10:46:26;;;;;;;12.73;9.90;;;18.60;99.90;;;;;;5018648;28;20252;-72
2022/10/20 10:49:00;;;;;;;12.18;9.75;;;18.60;99.90;;;;;;5051298;28;20202;-73
2022/10/20 10:51:53;;;;;;;14.35;10.40;;;18.60;99.90;;;;;;5018728;28;20239;-73
2022/10/20 10:54:33;;;;;;;15.18;11.35;;;18.60;99.90;;;;;;5052961;28;20171;-73
2022/10/20 10:57:13;;;;;;;16.15;11.23;;;18.60;99.90;;;;;;5051926;28;20189;-72
2022/10/20 10:59:43;;;;;;;15.95;12.57;;;18.60;99.90;;;;;;5053038;28;20210;-73
2022/10/20 11:02:59;;;;;;;19.48;13.25;;;18.60;99.90;;;;;;5018494;28;20267;-73
2022/10/20 11:05:54;;;;;;;17.25;12.75;;;18.60;99.90;;;;;;5034994;28;20194;-73
2022/10/20 11:09:02;;;;;;;18.15;13.43;;;18.60;99.90;;;;;;5034742;28;20236;-72
2022/10/20 11:12:23;;;;;;;18.58;13.63;;;18.60;99.90;;;;;;5018564;28;20272;-73
2022/10/20 11:15:42;;;;;;;17.23;13.52;;;18.60;99.90;;;;;;5035256;28;20187;-73
2022/10/20 11:18:42;;;;;;;17.27;13.32;;;18.60;99.90;;;;;;5017399;28;20289;-73
2022/10/20 11:21:34;;;;;;;17.38;13.73;;;18.60;99.90;;;;;;5015264;28;20183;-72
2022/10/20 11:24:05;;;;;;;18.10;13.20;;;18.60;99.90;;;;;;5015112;28;20627;-72
2022/10/20 11:26:43;;;;;;;16.75;12.20;;;18.60;99.90;;;;;;5015228;28;20590;-72
2022/10/20 11:29:50;;;;;;;14.23;11.15;;;18.60;99.90;;;;;;5034304;28;20259;-73
2022/10/20 11:32:25;;;;;;;17.55;12.70;;;18.60;99.90;;;;;;5021307;28;20213;-73
2022/10/20 11:35:24;;;;;;;17.05;12.43;;;18.60;99.90;;;;;;5034612;28;20204;-72
2022/10/20 11:38:04;;;;;;;16.23;11.85;;;18.60;99.90;;;;;;5034502;28;20594;-72
2022/10/20 11:40:38;;;;;;;14.88;11.77;;;18.60;99.90;;;;;;5034708;28;20276;-73
2022/10/20 11:43:29;;;;;;;12.75;11.27;;;18.60;99.90;;;;;;5034371;28;20181;-73
2022/10/20 11:46:04;;;;;;;14.35;11.82;;;18.60;99.90;;;;;;5018031;28;20626;-72
2022/10/20 11:49:04;;;;;;;15.80;11.77;;;18.60;99.90;;;;;;5051854;28;20685;-73
2022/10/20 11:51:29;;;;;;;15.93;11.95;;;18.60;99.90;;;;;;5030357;28;20214;-72
2022/10/20 11:54:28;;;;;;;16.98;12.07;;;18.60;99.90;;;;;;5052368;28;20253;-73
2022/10/20 11:57:31;;;;;;;15.55;11.57;;;18.60;99.90;;;;;;5034187;28;20209;-73
2022/10/20 12:00:19;;;;;;;14.77;10.93;;;18.60;99.90;;;;;;5034343;28;20218;-72
2022/10/20 12:03:08;;;;;;;15.90;11.85;;;18.60;99.90;;;;;;5050467;28;20190;-73
2022/10/20 12:06:02;;;;;;;14.60;11.35;;;18.60;99.90;;;;;;5034339;28;20186;-73
2022/10/20 12:09:02;;;;;;;14.98;11.95;;;18.60;99.90;;;;;;5033986;28;20228;-72
2022/10/20 12:12:01;;;;;;;12.68;10.60;;;18.60;99.90;;;;;;5034286;28;20238;-72
2022/10/20 12:14:40;;;;;;;15.00;12.15;;;18.60;99.90;;;;;;5050502;28;20268;-72
2022/10/20 12:17:28;;;;;;;13.68;11.75;;;18.60;99.90;;;;;;5051588;28;20656;-72
2022/10/20 12:20:19;;;;;;;13.82;11.40;;;18.60;99.90;;;;;;5033829;28;20628;-72
2022/10/20 12:22:49;;;;;;;15.82;11.27;;;18.60;99.90;;;;;;5017525;28;20195;-72
2022/10/20 12:25:24;;;;;;;13.77;11.00;;;18.60;99.90;;;;;;5033925;28;20705;-72
2022/10/20 12:28:21;;;;;;;14.05;11.18;;;18.60;99.90;;;;;;5017175;28;20190;-72
2022/10/20 12:30:59;;;;;;;12.52;10.98;;;18.60;99.90;;;;;;5036442;28;20214;-72
2022/10/20 12:33:52;;;;;;;15.40;12.18;;;18.60;99.90;;;;;;5037691;28;20176;-72
2022/10/20 12:36:17;;;;;;;14.48;11.18;;;18.60;99.90;;;;;;5037721;28;20607;-73
2022/10/20 12:38:47;;;;;;;17.23;12.48;;;18.60;99.90;;;;;;5037522;28;20202;-73
2022/10/20 12:41:36;;;;;;;15.27;11.73;;;18.60;99.90;;;;;;5037214;28;20192;-73
2022/10/20 12:44:13;;;;;;;14.63;11.10;;;18.60;99.90;;;;;;5037159;28;20191;-73
2022/10/20 12:46:52;;;;;;;13.70;11.48;;;18.60;99.90;;;;;;5036984;28;20213;-73
2022/10/20 12:49:29;;;;;;;14.85;11.50;;;18.60;99.90;;;;;;5031639;28;20207;-73
2022/10/20 12:51:58;;;;;;;14.77;10.93;;;18.60;99.90;;;;;;5017214;28;20194;-73
2022/10/20 12:54:33;;;;;;;14.35;11.90;;;18.60;99.90;;;;;;5000746;28;20180;-73
2022/10/20 12:57:22;;;;;;;14.43;11.38;;;18.60;99.90;;;;;;5016967;28;20218;-73
2022/10/20 12:59:48;;;;;;;14.25;11.30;;;18.60;99.90;;;;;;5048152;28;20215;-73
2022/10/20 13:02:16;;;;;;;13.32;11.00;;;18.60;99.90;;;;;;5020547;28;20369;-72
2022/10/20 13:05:06;;;;;;;15.50;11.30;;;18.60;99.90;;;;;;5037178;28;20194;-72
2022/10/20 13:07:47;;;;;;;13.35;10.75;;;18.60;99.90;;;;;;5054616;28;20206;-73
2022/10/20 13:10:25;;;;;;;13.80;11.07;;;18.60;99.90;;;;;;5037048;28;20229;-72
2022/10/20 13:13:11;;;;;;;13.40;10.73;;;18.60;99.90;;;;;;5020526;28;20194;-72
2022/10/20 13:15:42;;;;;;;15.70;11.98;;;18.60;99.90;;;;;;5023011;28;20300;-72
2022/10/20 13:18:11;;;;;;;14.07;10.82;;;18.60;99.90;;;;;;5020127;28;20206;-72
2022/10/20 13:21:05;;;;;;;16.38;12.20;;;18.60;99.90;;;;;;5027633;28;20650;-72